City's sites:

title views votes rating creation
?never been here 402 12 (3.08)  2010-02-07
?pastel negro 625 14 (2.50)  2010-02-07
?dizzy 288 8 (3.38)  2010-02-07
?two pictures from my desktop 877 16 (3.69)  2010-02-09
?broken clock realizes he is the last object left in the ... 448 10 (3.20)  2010-02-09
?heroes of old 601 19 (3.74)  2010-02-09
?mr. price 454 8 (3.25)  2010-02-09
?Music I Like - Part 1 636 10 (3.60)  2010-02-10
?Music I Like - Part 2 402 13 (3.54)  2010-02-10
?Music I Like - Part 3 558 13 (3.69)  2010-02-10
?Music I Like - Part 4 437 5 (3.20)  2010-02-10
?intense 563 9 (3.78)  2010-02-10
?oh SNAP 800 9 (3.22)  2010-02-10
?Music I Like - Part 5 569 9 (3.56)  2010-02-10
?SignlanguageTMND 416 14 (3.86)  2010-02-10
?lol internet (refresh) 634 6 (3.17)  2010-02-12
?Dumbeldore kills snape! 3,369 67 (4.03)  2010-02-12
?prairiedogeric10 tribute site 707 23 (3.96)  2010-02-13
?Legolewdite fan club 1,313 38 (3.87)  2010-02-13
?Connery retires 420 13 (3.85)  2010-02-13
?TOURNEY4: lol internet 562 7 (2.43)  2010-02-15
?Speed Deemon 1,039 23 (3.74)  2010-02-23
?Tribute: ASSCOCKredux 1,689 64 (3.91)  2010-02-23
?some light jazz with Robert De Niro 873 12 (3.50)  2010-02-23
?In What Language 1,469 34 (3.74)  2010-02-24
?go go go go go go go go go go go go go go go go ... 2,088 23 (3.74)  2010-02-24
?FEARCONDOM'S FAMILY Q U I L T 617 11 (3.55)  2010-02-24
?TEST 803 19 (3.84)  2010-02-26
?....someday, oh dream maker DUNANANANAN... 5,127 148 (3.96)  2010-02-28
?DOUGH FUNNIE HOMO DICKS 674 12 (3.58)  2010-03-01
?Using a concrete bricK 600 17 (3.82)  2010-03-01
?I had sex with a Kayan Tribe woman, little help plea... 1,009 11 (3.36)  2010-03-03
?Adventure 4 1,120 18 (3.61)  2010-03-03
?the standoff 480 9 (3.67)  2010-03-03
?alley children 540 11 (3.91)  2010-03-05
?Steven Seagal isn't impressed 9,895 181 (4.17)  2010-03-05
?Daunting Steps 229 7 (3.00)  2010-03-05
?Cruel and Unusual 6,236 163 (4.24)  2010-03-09
?DancehallTMND 473 10 (3.80)  2010-03-12
?FUCK OUT MY FACE 498 5 (2.60)  2010-03-18
?16, no dither 815 18 (3.94)  2010-03-20
?say hi to my girlfriend 1,026 16 (3.81)  2010-03-21
?TT 651 16 (3.88)  2010-03-23
?jimmm thinks about his next five 708 20 (3.80)  2010-03-24
?THE TELEKINETIC MAN 308 18 (3.50)  2010-03-25
?. 132 7 (2.71)  2010-03-26
?1! 373 17 (3.35)  2010-03-26
?Fake crocodile takes it to the limit one more time 617 9 (3.67)  2010-03-27
?croctheme 408 4 (3.25)  2010-03-27
?crocodile site 468 6 (3.50)  2010-03-27
?CROC MAKES A 187 LOOK EASY 207 6 (3.33)  2010-03-27
?New Croc SIte 178 5 (3.40)  2010-03-27
?L 411 19 (3.63)  2010-03-27
?crocodile sIte 330 10 (3.50)  2010-03-30
?Pleasant® 386 8 (3.38)  2010-03-30
?A Lovely Ride 299 13 (3.85)  2010-03-30
?It's glorious today 298 14 (3.64)  2010-04-01
?Na - Zu 441 10 (3.70)  2010-04-01
?WHO'NOWOWOWOW 426 5 (2.60)  2010-04-03
?part of your world 222 5 (3.00)  2010-04-04
?fff 183 4 (3.50)  2010-04-04
?FIve-star webiste 1,037 16 (1.94)  2010-04-04
?Captain Haddock 1,768 28 (3.86)  2010-04-04
?, 285 9 (3.33)  2010-04-05
?indnian 451 7 (2.71)  2010-04-05
?Ricky Manning tribute sIte will be Underway soon ! 244 3 (3.67)  2010-04-06
?Epic Domain Grab 225 6 (2.17)  2010-04-06
?retirement site 171 6 (2.83)  2010-04-06
?Paul newman doesn't drive a VAN 208 4 (3.00)  2010-04-06
?Vince McMan 385 7 (2.86)  2010-04-06
?LOL 331 5 (3.00)  2010-04-06
?wut 334 4 (2.75)  2010-04-06
?www.coachcarter.ytmnd.com 353 8 (1.88)  2010-04-06
?untitled 337 7 (2.14)  2010-04-09
?ExpirimennalTYTMND 405 8 (3.38)  2010-04-09
?jioejejejoijiojiojioejiejoijeoj 441 14 (3.79)  2010-04-09
?Jake Steele catches a fly ball 382 4 (3.50)  2010-04-10
?Jake Steele forgets the milk 362 3 (3.00)  2010-04-10
?Jake Steele just found his watch 357 4 (3.25)  2010-04-10
?Jake Steele grows up a bit 470 7 (2.86)  2010-04-10
?KRA2008 400 5 (2.60)  2010-04-10
?Fuck the world 815 26 (3.88)  2010-04-16
?a sexual guy 527 10 (2.30)  2010-05-12
?well 358 4 (4.25)  2010-09-03
?gay site you can watch while thinking about stuff 1,646 15 (4.07)  2010-09-13
?site dedicated to great warchief 1,315 12 (3.58)  2010-09-16
?38388 886 8 (3.88)  2010-09-16
?watching the world buzz by 543 4 (3.50)  2010-09-16
?what now 1,494 17 (3.94)  2010-09-16